sensor_id;sensor_type;location;lat;lon;timestamp;temperature;humidity
22633;DHT22;11483;55.828;37.488;2022-11-18T00:02:18;-4.80;99.90
22633;DHT22;11483;55.828;37.488;2022-11-18T00:04:44;-4.70;99.90
22633;DHT22;11483;55.828;37.488;2022-11-18T00:07:10;-4.70;99.90
22633;DHT22;11483;55.828;37.488;2022-11-18T00:09:35;-4.70;99.90
22633;DHT22;11483;55.828;37.488;2022-11-18T00:12:01;-4.70;99.90
22633;DHT22;11483;55.828;37.488;2022-11-18T00:14:46;-4.70;99.90
22633;DHT22;11483;55.828;37.488;2022-11-18T00:17:11;-4.80;99.90
22633;DHT22;11483;55.828;37.488;2022-11-18T00:19:38;-4.80;99.90
22633;DHT22;11483;55.828;37.488;2022-11-18T00:22:07;-4.80;99.90
22633;DHT22;11483;55.828;37.488;2022-11-18T00:24:34;-4.80;99.90
22633;DHT22;11483;55.828;37.488;2022-11-18T00:26:59;-4.80;99.90
22633;DHT22;11483;55.828;37.488;2022-11-18T00:29:26;-4.80;99.90
22633;DHT22;11483;55.828;37.488;2022-11-18T00:31:53;-4.80;99.90
22633;DHT22;11483;55.828;37.488;2022-11-18T00:34:19;-4.80;99.90
22633;DHT22;11483;55.828;37.488;2022-11-18T00:36:46;-4.80;99.90
22633;DHT22;11483;55.828;37.488;2022-11-18T00:39:14;-4.80;99.90
22633;DHT22;11483;55.828;37.488;2022-11-18T00:41:40;-4.80;99.90
22633;DHT22;11483;55.828;37.488;2022-11-18T00:44:25;-4.80;99.90
22633;DHT22;11483;55.828;37.488;2022-11-18T00:46:51;-4.80;99.90
22633;DHT22;11483;55.828;37.488;2022-11-18T00:49:17;-4.80;99.90
22633;DHT22;11483;55.828;37.488;2022-11-18T00:51:42;-4.80;99.90
22633;DHT22;11483;55.828;37.488;2022-11-18T00:54:08;-4.80;99.90
22633;DHT22;11483;55.828;37.488;2022-11-18T00:56:34;-4.80;99.90
22633;DHT22;11483;55.828;37.488;2022-11-18T00:59:00;-4.80;99.90
22633;DHT22;11483;55.828;37.488;2022-11-18T01:01:26;-4.80;99.90
22633;DHT22;11483;55.828;37.488;2022-11-18T01:03:52;-4.80;99.90
22633;DHT22;11483;55.828;37.488;2022-11-18T01:06:18;-4.80;99.90
22633;DHT22;11483;55.828;37.488;2022-11-18T01:08:43;-4.80;99.90
22633;DHT22;11483;55.828;37.488;2022-11-18T01:11:10;-4.70;99.90
22633;DHT22;11483;55.828;37.488;2022-11-18T01:13:54;-4.70;99.90
22633;DHT22;11483;55.828;37.488;2022-11-18T01:16:21;-4.70;99.90
22633;DHT22;11483;55.828;37.488;2022-11-18T01:18:47;-4.70;99.90
22633;DHT22;11483;55.828;37.488;2022-11-18T01:21:13;-4.70;99.90
22633;DHT22;11483;55.828;37.488;2022-11-18T01:23:39;-4.70;99.90
22633;DHT22;11483;55.828;37.488;2022-11-18T01:26:07;-4.70;99.90
22633;DHT22;11483;55.828;37.488;2022-11-18T01:28:34;-4.70;99.90
22633;DHT22;11483;55.828;37.488;2022-11-18T01:31:12;-4.70;99.90
22633;DHT22;11483;55.828;37.488;2022-11-18T01:33:38;-4.70;99.90
22633;DHT22;11483;55.828;37.488;2022-11-18T01:36:12;-4.70;99.90
22633;DHT22;11483;55.828;37.488;2022-11-18T01:38:38;-4.70;99.90
22633;DHT22;11483;55.828;37.488;2022-11-18T01:41:04;-4.60;99.90
22633;DHT22;11483;55.828;37.488;2022-11-18T01:43:58;-4.60;99.90
22633;DHT22;11483;55.828;37.488;2022-11-18T01:46:26;-4.60;99.90
22633;DHT22;11483;55.828;37.488;2022-11-18T01:48:56;-4.70;99.90
22633;DHT22;11483;55.828;37.488;2022-11-18T01:51:44;-4.70;99.90
22633;DHT22;11483;55.828;37.488;2022-11-18T01:54:17;-4.70;99.90
22633;DHT22;11483;55.828;37.488;2022-11-18T01:56:47;-4.70;99.90
22633;DHT22;11483;55.828;37.488;2022-11-18T01:59:18;-4.80;99.90
22633;DHT22;11483;55.828;37.488;2022-11-18T02:01:45;-4.70;99.90
22633;DHT22;11483;55.828;37.488;2022-11-18T02:04:13;-4.80;99.90
22633;DHT22;11483;55.828;37.488;2022-11-18T02:06:43;-4.70;99.90
22633;DHT22;11483;55.828;37.488;2022-11-18T02:09:11;-4.80;99.90
22633;DHT22;11483;55.828;37.488;2022-11-18T02:11:38;-4.70;99.90
22633;DHT22;11483;55.828;37.488;2022-11-18T02:14:20;-4.70;99.90
22633;DHT22;11483;55.828;37.488;2022-11-18T02:22:10;-4.70;99.90
22633;DHT22;11483;55.828;37.488;2022-11-18T02:30:19;-4.60;99.90
22633;DHT22;11483;55.828;37.488;2022-11-18T02:33:11;-4.70;99.90
22633;DHT22;11483;55.828;37.488;2022-11-18T02:38:28;-4.70;99.90
22633;DHT22;11483;55.828;37.488;2022-11-18T02:41:03;-4.70;99.90
22633;DHT22;11483;55.828;37.488;2022-11-18T02:43:34;-4.70;99.90
22633;DHT22;11483;55.828;37.488;2022-11-18T02:46:06;-4.70;99.90
22633;DHT22;11483;55.828;37.488;2022-11-18T02:48:36;-4.70;99.90
22633;DHT22;11483;55.828;37.488;2022-11-18T02:51:05;-4.70;99.90
22633;DHT22;11483;55.828;37.488;2022-11-18T02:53:34;-4.70;99.90
22633;DHT22;11483;55.828;37.488;2022-11-18T02:56:01;-4.70;99.90
22633;DHT22;11483;55.828;37.488;2022-11-18T02:58:28;-4.70;99.90
22633;DHT22;11483;55.828;37.488;2022-11-18T03:00:58;-4.70;99.90
22633;DHT22;11483;55.828;37.488;2022-11-18T03:03:29;-4.70;99.90
22633;DHT22;11483;55.828;37.488;2022-11-18T03:06:10;-4.60;99.90
22633;DHT22;11483;55.828;37.488;2022-11-18T03:08:54;-4.70;99.90
22633;DHT22;11483;55.828;37.488;2022-11-18T03:11:25;-4.70;99.90
22633;DHT22;11483;55.828;37.488;2022-11-18T03:24:34;-4.70;99.90
22633;DHT22;11483;55.828;37.488;2022-11-18T03:27:17;-4.60;99.90
22633;DHT22;11483;55.828;37.488;2022-11-18T03:29:57;-4.70;99.90
22633;DHT22;11483;55.828;37.488;2022-11-18T03:32:27;-4.70;99.90
22633;DHT22;11483;55.828;37.488;2022-11-18T03:35:08;-4.70;99.90
22633;DHT22;11483;55.828;37.488;2022-11-18T03:37:35;-4.60;99.90
22633;DHT22;11483;55.828;37.488;2022-11-18T03:40:14;-4.60;99.90
22633;DHT22;11483;55.828;37.488;2022-11-18T03:42:45;-4.60;99.90
22633;DHT22;11483;55.828;37.488;2022-11-18T03:45:20;-4.70;99.90
22633;DHT22;11483;55.828;37.488;2022-11-18T03:50:49;-4.60;99.90
22633;DHT22;11483;55.828;37.488;2022-11-18T03:53:16;-4.60;99.90
22633;DHT22;11483;55.828;37.488;2022-11-18T03:55:46;-4.60;99.90
22633;DHT22;11483;55.828;37.488;2022-11-18T04:00:50;-4.60;99.90
22633;DHT22;11483;55.828;37.488;2022-11-18T04:03:17;-4.60;99.90
22633;DHT22;11483;55.828;37.488;2022-11-18T04:05:43;-4.60;99.90
22633;DHT22;11483;55.828;37.488;2022-11-18T04:08:18;-4.60;99.90
22633;DHT22;11483;55.828;37.488;2022-11-18T04:10:57;-4.60;99.90
22633;DHT22;11483;55.828;37.488;2022-11-18T04:13:29;-4.50;99.90
22633;DHT22;11483;55.828;37.488;2022-11-18T04:15:55;-4.50;99.90
22633;DHT22;11483;55.828;37.488;2022-11-18T04:18:22;-4.50;99.90
22633;DHT22;11483;55.828;37.488;2022-11-18T04:20:48;-4.50;99.90
22633;DHT22;11483;55.828;37.488;2022-11-18T04:23:14;-4.50;99.90
22633;DHT22;11483;55.828;37.488;2022-11-18T04:25:40;-4.60;99.90
22633;DHT22;11483;55.828;37.488;2022-11-18T04:28:05;-4.60;99.90
22633;DHT22;11483;55.828;37.488;2022-11-18T04:30:32;-4.50;99.90
22633;DHT22;11483;55.828;37.488;2022-11-18T04:32:58;-4.50;99.90
22633;DHT22;11483;55.828;37.488;2022-11-18T04:35:24;-4.50;99.90
22633;DHT22;11483;55.828;37.488;2022-11-18T04:37:50;-4.50;99.90
22633;DHT22;11483;55.828;37.488;2022-11-18T04:40:16;-4.50;99.90
22633;DHT22;11483;55.828;37.488;2022-11-18T04:42:42;-4.50;99.90
22633;DHT22;11483;55.828;37.488;2022-11-18T04:45:08;-4.50;99.90
22633;DHT22;11483;55.828;37.488;2022-11-18T04:47:34;-4.50;99.90
22633;DHT22;11483;55.828;37.488;2022-11-18T04:50:00;-4.50;99.90
22633;DHT22;11483;55.828;37.488;2022-11-18T04:52:26;-4.50;99.90
22633;DHT22;11483;55.828;37.488;2022-11-18T04:54:51;-4.50;99.90
22633;DHT22;11483;55.828;37.488;2022-11-18T04:57:18;-4.50;99.90
22633;DHT22;11483;55.828;37.488;2022-11-18T04:59:43;-4.50;99.90
22633;DHT22;11483;55.828;37.488;2022-11-18T05:02:09;-4.50;99.90
22633;DHT22;11483;55.828;37.488;2022-11-18T05:04:35;-4.50;99.90
22633;DHT22;11483;55.828;37.488;2022-11-18T05:07:02;-4.50;99.90
22633;DHT22;11483;55.828;37.488;2022-11-18T05:09:29;-4.50;99.90
22633;DHT22;11483;55.828;37.488;2022-11-18T05:11:55;-4.50;99.90
22633;DHT22;11483;55.828;37.488;2022-11-18T05:14:39;-4.50;99.90
22633;DHT22;11483;55.828;37.488;2022-11-18T05:17:07;-4.50;99.90
22633;DHT22;11483;55.828;37.488;2022-11-18T05:19:33;-4.50;99.90
22633;DHT22;11483;55.828;37.488;2022-11-18T05:22:01;-4.50;99.90
22633;DHT22;11483;55.828;37.488;2022-11-18T05:24:27;-4.50;99.90
22633;DHT22;11483;55.828;37.488;2022-11-18T05:26:53;-4.50;99.90
22633;DHT22;11483;55.828;37.488;2022-11-18T05:29:20;-4.50;99.90
22633;DHT22;11483;55.828;37.488;2022-11-18T05:31:47;-4.50;99.90
22633;DHT22;11483;55.828;37.488;2022-11-18T05:34:13;-4.60;99.90
22633;DHT22;11483;55.828;37.488;2022-11-18T05:36:39;-4.60;99.90
22633;DHT22;11483;55.828;37.488;2022-11-18T05:39:05;-4.50;99.90
22633;DHT22;11483;55.828;37.488;2022-11-18T05:41:31;-4.50;99.90
22633;DHT22;11483;55.828;37.488;2022-11-18T05:44:16;-4.50;99.90
22633;DHT22;11483;55.828;37.488;2022-11-18T05:46:42;-4.50;99.90
22633;DHT22;11483;55.828;37.488;2022-11-18T05:49:08;-4.40;99.90
22633;DHT22;11483;55.828;37.488;2022-11-18T05:51:34;-4.40;99.90
22633;DHT22;11483;55.828;37.488;2022-11-18T05:54:03;-4.50;99.90
22633;DHT22;11483;55.828;37.488;2022-11-18T05:56:35;-4.40;99.90
22633;DHT22;11483;55.828;37.488;2022-11-18T05:59:02;-4.50;99.90
22633;DHT22;11483;55.828;37.488;2022-11-18T06:01:39;-4.40;99.90
22633;DHT22;11483;55.828;37.488;2022-11-18T06:06:50;-4.30;99.90
22633;DHT22;11483;55.828;37.488;2022-11-18T06:09:21;-4.30;99.90
22633;DHT22;11483;55.828;37.488;2022-11-18T06:11:52;-4.30;99.90
22633;DHT22;11483;55.828;37.488;2022-11-18T06:14:41;-4.30;99.90
22633;DHT22;11483;55.828;37.488;2022-11-18T06:17:12;-4.30;99.90
22633;DHT22;11483;55.828;37.488;2022-11-18T06:19:39;-4.30;99.90
22633;DHT22;11483;55.828;37.488;2022-11-18T06:22:06;-4.30;99.90
22633;DHT22;11483;55.828;37.488;2022-11-18T06:24:33;-4.30;99.90
22633;DHT22;11483;55.828;37.488;2022-11-18T06:26:59;-4.30;99.90
22633;DHT22;11483;55.828;37.488;2022-11-18T06:29:26;-4.30;99.90
22633;DHT22;11483;55.828;37.488;2022-11-18T06:31:52;-4.30;99.90
22633;DHT22;11483;55.828;37.488;2022-11-18T06:34:18;-4.30;99.90
22633;DHT22;11483;55.828;37.488;2022-11-18T06:36:44;-4.30;99.90
22633;DHT22;11483;55.828;37.488;2022-11-18T06:39:09;-4.20;99.90
22633;DHT22;11483;55.828;37.488;2022-11-18T06:41:35;-4.20;99.90
22633;DHT22;11483;55.828;37.488;2022-11-18T06:44:01;-4.20;99.90
22633;DHT22;11483;55.828;37.488;2022-11-18T06:46:27;-4.20;99.90
22633;DHT22;11483;55.828;37.488;2022-11-18T06:49:11;-4.20;99.90
22633;DHT22;11483;55.828;37.488;2022-11-18T06:51:37;-4.20;99.90
22633;DHT22;11483;55.828;37.488;2022-11-18T06:54:04;-4.20;99.90
22633;DHT22;11483;55.828;37.488;2022-11-18T06:56:29;-4.10;99.90
22633;DHT22;11483;55.828;37.488;2022-11-18T06:58:57;-4.10;99.90
22633;DHT22;11483;55.828;37.488;2022-11-18T07:01:29;-4.10;99.90
22633;DHT22;11483;55.828;37.488;2022-11-18T07:03:58;-4.00;99.90
22633;DHT22;11483;55.828;37.488;2022-11-18T07:06:26;-4.00;99.90
22633;DHT22;11483;55.828;37.488;2022-11-18T07:08:52;-3.90;99.90
22633;DHT22;11483;55.828;37.488;2022-11-18T07:11:21;-3.90;99.90
22633;DHT22;11483;55.828;37.488;2022-11-18T07:13:48;-3.90;99.90
22633;DHT22;11483;55.828;37.488;2022-11-18T07:16:16;-3.80;99.90
22633;DHT22;11483;55.828;37.488;2022-11-18T07:18:44;-3.80;99.90
22633;DHT22;11483;55.828;37.488;2022-11-18T07:21:18;-3.80;99.90
22633;DHT22;11483;55.828;37.488;2022-11-18T07:23:44;-3.80;99.90
22633;DHT22;11483;55.828;37.488;2022-11-18T07:26:11;-3.80;99.90
22633;DHT22;11483;55.828;37.488;2022-11-18T07:28:37;-3.80;99.90
22633;DHT22;11483;55.828;37.488;2022-11-18T07:31:15;-3.80;99.90
22633;DHT22;11483;55.828;37.488;2022-11-18T07:33:42;-3.80;99.90
22633;DHT22;11483;55.828;37.488;2022-11-18T07:36:10;-3.90;99.90
22633;DHT22;11483;55.828;37.488;2022-11-18T07:38:36;-4.00;99.90
22633;DHT22;11483;55.828;37.488;2022-11-18T07:41:11;-4.00;99.90
22633;DHT22;11483;55.828;37.488;2022-11-18T07:43:37;-4.00;99.90
22633;DHT22;11483;55.828;37.488;2022-11-18T07:46:16;-4.00;99.90
22633;DHT22;11483;55.828;37.488;2022-11-18T07:48:44;-3.90;99.90
22633;DHT22;11483;55.828;37.488;2022-11-18T07:51:11;-3.80;99.90
22633;DHT22;11483;55.828;37.488;2022-11-18T07:53:37;-3.80;99.90
22633;DHT22;11483;55.828;37.488;2022-11-18T07:56:04;-3.70;99.90
22633;DHT22;11483;55.828;37.488;2022-11-18T07:58:30;-3.70;99.90
22633;DHT22;11483;55.828;37.488;2022-11-18T08:00:56;-3.60;99.90
22633;DHT22;11483;55.828;37.488;2022-11-18T08:03:28;-3.50;99.90
22633;DHT22;11483;55.828;37.488;2022-11-18T08:06:00;-3.40;99.90
22633;DHT22;11483;55.828;37.488;2022-11-18T08:08:27;-3.40;99.90
22633;DHT22;11483;55.828;37.488;2022-11-18T08:10:56;-3.40;99.90
22633;DHT22;11483;55.828;37.488;2022-11-18T08:13:23;-3.50;99.90
22633;DHT22;11483;55.828;37.488;2022-11-18T08:15:52;-3.40;99.90
22633;DHT22;11483;55.828;37.488;2022-11-18T08:18:19;-3.40;99.90
22633;DHT22;11483;55.828;37.488;2022-11-18T08:20:45;-3.30;99.90
22633;DHT22;11483;55.828;37.488;2022-11-18T08:23:12;-3.20;99.90
22633;DHT22;11483;55.828;37.488;2022-11-18T08:25:39;-3.10;99.90
22633;DHT22;11483;55.828;37.488;2022-11-18T08:28:05;-3.10;99.90
22633;DHT22;11483;55.828;37.488;2022-11-18T08:30:33;-3.20;99.90
22633;DHT22;11483;55.828;37.488;2022-11-18T08:32:59;-3.20;99.90
22633;DHT22;11483;55.828;37.488;2022-11-18T08:35:26;-3.20;99.90
22633;DHT22;11483;55.828;37.488;2022-11-18T08:37:54;-3.20;99.90
22633;DHT22;11483;55.828;37.488;2022-11-18T08:40:20;-3.20;99.90
22633;DHT22;11483;55.828;37.488;2022-11-18T08:42:46;-3.20;99.90
22633;DHT22;11483;55.828;37.488;2022-11-18T08:45:12;-3.20;99.90
22633;DHT22;11483;55.828;37.488;2022-11-18T08:47:39;-3.20;99.90
22633;DHT22;11483;55.828;37.488;2022-11-18T08:50:07;-3.20;99.90
22633;DHT22;11483;55.828;37.488;2022-11-18T08:52:33;-3.20;99.90
22633;DHT22;11483;55.828;37.488;2022-11-18T08:54:58;-3.20;99.90
22633;DHT22;11483;55.828;37.488;2022-11-18T08:57:28;-3.20;99.90
22633;DHT22;11483;55.828;37.488;2022-11-18T08:59:53;-3.20;99.90
22633;DHT22;11483;55.828;37.488;2022-11-18T09:02:21;-3.20;99.90
22633;DHT22;11483;55.828;37.488;2022-11-18T09:04:48;-3.10;99.90
22633;DHT22;11483;55.828;37.488;2022-11-18T09:07:15;-3.20;99.90
22633;DHT22;11483;55.828;37.488;2022-11-18T09:09:41;-3.00;99.90
22633;DHT22;11483;55.828;37.488;2022-11-18T09:12:07;-3.00;99.90
22633;DHT22;11483;55.828;37.488;2022-11-18T09:14:34;-2.80;99.90
22633;DHT22;11483;55.828;37.488;2022-11-18T09:17:00;-3.00;99.90
22633;DHT22;11483;55.828;37.488;2022-11-18T09:19:26;-2.90;99.90
22633;DHT22;11483;55.828;37.488;2022-11-18T09:21:52;-3.00;99.90
22633;DHT22;11483;55.828;37.488;2022-11-18T09:24:18;-3.00;99.90
22633;DHT22;11483;55.828;37.488;2022-11-18T09:26:45;-2.90;99.90
22633;DHT22;11483;55.828;37.488;2022-11-18T09:29:10;-2.90;99.90
22633;DHT22;11483;55.828;37.488;2022-11-18T09:31:36;-2.90;99.90
22633;DHT22;11483;55.828;37.488;2022-11-18T09:34:02;-2.90;99.90
22633;DHT22;11483;55.828;37.488;2022-11-18T09:36:29;-2.80;99.90
22633;DHT22;11483;55.828;37.488;2022-11-18T09:38:55;-2.70;99.90
22633;DHT22;11483;55.828;37.488;2022-11-18T09:49:36;-2.80;99.90
22633;DHT22;11483;55.828;37.488;2022-11-18T09:52:27;-2.80;99.90
22633;DHT22;11483;55.828;37.488;2022-11-18T09:54:54;-2.80;99.90
22633;DHT22;11483;55.828;37.488;2022-11-18T09:57:23;-2.70;99.90
22633;DHT22;11483;55.828;37.488;2022-11-18T09:59:50;-2.70;99.90
22633;DHT22;11483;55.828;37.488;2022-11-18T10:05:25;-2.60;99.90
22633;DHT22;11483;55.828;37.488;2022-11-18T10:08:16;-2.60;99.90
22633;DHT22;11483;55.828;37.488;2022-11-18T10:24:41;-2.40;99.90
22633;DHT22;11483;55.828;37.488;2022-11-18T10:27:13;-2.40;99.90
22633;DHT22;11483;55.828;37.488;2022-11-18T10:29:40;-2.50;99.90
22633;DHT22;11483;55.828;37.488;2022-11-18T10:32:07;-2.50;99.90
22633;DHT22;11483;55.828;37.488;2022-11-18T10:34:55;-2.50;99.90
22633;DHT22;11483;55.828;37.488;2022-11-18T10:37:33;-2.60;99.90
22633;DHT22;11483;55.828;37.488;2022-11-18T10:40:05;-2.50;99.90
22633;DHT22;11483;55.828;37.488;2022-11-18T10:42:40;-2.50;99.90
22633;DHT22;11483;55.828;37.488;2022-11-18T10:48:19;-2.50;99.90
22633;DHT22;11483;55.828;37.488;2022-11-18T10:50:47;-2.50;99.90
22633;DHT22;11483;55.828;37.488;2022-11-18T10:53:34;-2.40;99.90
22633;DHT22;11483;55.828;37.488;2022-11-18T10:56:01;-2.40;99.90
22633;DHT22;11483;55.828;37.488;2022-11-18T10:58:29;-2.60;99.90
22633;DHT22;11483;55.828;37.488;2022-11-18T11:01:22;-2.70;99.90
22633;DHT22;11483;55.828;37.488;2022-11-18T11:06:31;-2.70;99.90
22633;DHT22;11483;55.828;37.488;2022-11-18T11:11:54;-2.70;99.90
22633;DHT22;11483;55.828;37.488;2022-11-18T11:14:21;-2.70;99.90
22633;DHT22;11483;55.828;37.488;2022-11-18T11:19:55;-2.70;99.90
22633;DHT22;11483;55.828;37.488;2022-11-18T11:22:23;-2.80;99.90
22633;DHT22;11483;55.828;37.488;2022-11-18T11:24:49;-2.80;99.90
22633;DHT22;11483;55.828;37.488;2022-11-18T11:27:45;-2.80;99.90
22633;DHT22;11483;55.828;37.488;2022-11-18T11:35:40;-2.70;99.90
22633;DHT22;11483;55.828;37.488;2022-11-18T11:38:31;-2.70;99.90
22633;DHT22;11483;55.828;37.488;2022-11-18T11:46:58;-2.90;99.90
22633;DHT22;11483;55.828;37.488;2022-11-18T11:49:59;-2.80;99.90
22633;DHT22;11483;55.828;37.488;2022-11-18T12:00:40;-2.70;99.90
22633;DHT22;11483;55.828;37.488;2022-11-18T12:03:36;-2.70;99.90
22633;DHT22;11483;55.828;37.488;2022-11-18T12:06:10;-2.80;99.90
22633;DHT22;11483;55.828;37.488;2022-11-18T12:08:38;-2.90;99.90
22633;DHT22;11483;55.828;37.488;2022-11-18T12:11:13;-2.90;99.90
22633;DHT22;11483;55.828;37.488;2022-11-18T12:19:11;-2.80;99.90
22633;DHT22;11483;55.828;37.488;2022-11-18T12:26:48;-2.80;99.90
22633;DHT22;11483;55.828;37.488;2022-11-18T12:31:59;-2.90;99.90
22633;DHT22;11483;55.828;37.488;2022-11-18T12:34:33;-3.00;99.90
22633;DHT22;11483;55.828;37.488;2022-11-18T12:39:57;-2.90;99.90
22633;DHT22;11483;55.828;37.488;2022-11-18T12:42:49;-2.90;99.90
22633;DHT22;11483;55.828;37.488;2022-11-18T12:48:38;-2.90;99.90
22633;DHT22;11483;55.828;37.488;2022-11-18T12:53:41;-3.00;99.90
22633;DHT22;11483;55.828;37.488;2022-11-18T12:58:36;-3.10;99.90
22633;DHT22;11483;55.828;37.488;2022-11-18T13:01:05;-3.10;99.90
22633;DHT22;11483;55.828;37.488;2022-11-18T13:03:32;-3.10;99.90
22633;DHT22;11483;55.828;37.488;2022-11-18T13:06:13;-3.10;99.90
22633;DHT22;11483;55.828;37.488;2022-11-18T13:08:43;-3.20;99.90
22633;DHT22;11483;55.828;37.488;2022-11-18T13:11:16;-3.20;99.90
22633;DHT22;11483;55.828;37.488;2022-11-18T13:14:05;-3.20;99.90
22633;DHT22;11483;55.828;37.488;2022-11-18T13:16:56;-3.30;99.90
22633;DHT22;11483;55.828;37.488;2022-11-18T13:19:41;-3.20;99.90
22633;DHT22;11483;55.828;37.488;2022-11-18T13:22:27;-3.20;99.90
22633;DHT22;11483;55.828;37.488;2022-11-18T13:25:30;-3.20;99.90
22633;DHT22;11483;55.828;37.488;2022-11-18T13:30:57;-3.30;99.90
22633;DHT22;11483;55.828;37.488;2022-11-18T13:33:25;-3.40;99.90
22633;DHT22;11483;55.828;37.488;2022-11-18T13:35:51;-3.40;99.90
22633;DHT22;11483;55.828;37.488;2022-11-18T13:38:23;-3.50;99.90
22633;DHT22;11483;55.828;37.488;2022-11-18T13:40:50;-3.50;99.90
22633;DHT22;11483;55.828;37.488;2022-11-18T13:43:30;-3.40;99.90
22633;DHT22;11483;55.828;37.488;2022-11-18T13:45:59;-3.40;99.90
22633;DHT22;11483;55.828;37.488;2022-11-18T13:48:26;-3.30;99.90
22633;DHT22;11483;55.828;37.488;2022-11-18T13:50:54;-3.30;99.90
22633;DHT22;11483;55.828;37.488;2022-11-18T13:53:30;-3.30;99.90
22633;DHT22;11483;55.828;37.488;2022-11-18T13:56:01;-3.40;99.90
22633;DHT22;11483;55.828;37.488;2022-11-18T13:58:50;-3.40;99.90
22633;DHT22;11483;55.828;37.488;2022-11-18T14:01:32;-3.40;99.90
22633;DHT22;11483;55.828;37.488;2022-11-18T14:04:06;-3.30;99.90
22633;DHT22;11483;55.828;37.488;2022-11-18T14:06:40;-3.30;99.90
22633;DHT22;11483;55.828;37.488;2022-11-18T14:14:32;-3.10;99.90
22633;DHT22;11483;55.828;37.488;2022-11-18T14:19:40;-3.10;99.90
22633;DHT22;11483;55.828;37.488;2022-11-18T14:22:15;-3.20;99.90
22633;DHT22;11483;55.828;37.488;2022-11-18T14:24:42;-3.10;99.90
22633;DHT22;11483;55.828;37.488;2022-11-18T14:27:44;-3.10;99.90
22633;DHT22;11483;55.828;37.488;2022-11-18T14:30:40;-3.20;99.90
22633;DHT22;11483;55.828;37.488;2022-11-18T14:35:40;-3.20;99.90
22633;DHT22;11483;55.828;37.488;2022-11-18T14:41:02;-3.30;99.90
22633;DHT22;11483;55.828;37.488;2022-11-18T14:43:29;-3.30;99.90
22633;DHT22;11483;55.828;37.488;2022-11-18T14:46:04;-3.40;99.90
22633;DHT22;11483;55.828;37.488;2022-11-18T14:48:31;-3.40;99.90
22633;DHT22;11483;55.828;37.488;2022-11-18T14:50:57;-3.40;99.90
22633;DHT22;11483;55.828;37.488;2022-11-18T14:53:23;-3.40;99.90
22633;DHT22;11483;55.828;37.488;2022-11-18T14:55:51;-3.50;99.90
22633;DHT22;11483;55.828;37.488;2022-11-18T14:58:17;-3.50;99.90
22633;DHT22;11483;55.828;37.488;2022-11-18T15:00:46;-3.50;99.90
22633;DHT22;11483;55.828;37.488;2022-11-18T15:03:12;-3.50;99.90
22633;DHT22;11483;55.828;37.488;2022-11-18T15:05:38;-3.50;99.90
22633;DHT22;11483;55.828;37.488;2022-11-18T15:08:05;-3.60;99.90
22633;DHT22;11483;55.828;37.488;2022-11-18T15:10:34;-3.60;99.90
22633;DHT22;11483;55.828;37.488;2022-11-18T15:13:02;-3.60;99.90
22633;DHT22;11483;55.828;37.488;2022-11-18T15:15:28;-3.60;99.90
22633;DHT22;11483;55.828;37.488;2022-11-18T15:17:54;-3.60;99.90
22633;DHT22;11483;55.828;37.488;2022-11-18T15:20:21;-3.60;99.90
22633;DHT22;11483;55.828;37.488;2022-11-18T15:22:47;-3.60;99.90
22633;DHT22;11483;55.828;37.488;2022-11-18T15:25:13;-3.70;99.90
22633;DHT22;11483;55.828;37.488;2022-11-18T15:27:39;-3.70;99.90
22633;DHT22;11483;55.828;37.488;2022-11-18T15:30:05;-3.70;99.90
22633;DHT22;11483;55.828;37.488;2022-11-18T15:32:31;-3.60;99.90
22633;DHT22;11483;55.828;37.488;2022-11-18T15:34:57;-3.60;99.90
22633;DHT22;11483;55.828;37.488;2022-11-18T15:37:24;-3.60;99.90
22633;DHT22;11483;55.828;37.488;2022-11-18T15:39:50;-3.60;99.90
22633;DHT22;11483;55.828;37.488;2022-11-18T15:42:19;-3.60;99.90
22633;DHT22;11483;55.828;37.488;2022-11-18T15:44:45;-3.60;99.90
22633;DHT22;11483;55.828;37.488;2022-11-18T15:47:11;-3.60;99.90
22633;DHT22;11483;55.828;37.488;2022-11-18T15:49:37;-3.50;99.90
22633;DHT22;11483;55.828;37.488;2022-11-18T15:52:11;-3.50;99.90
22633;DHT22;11483;55.828;37.488;2022-11-18T15:54:37;-3.50;99.90
22633;DHT22;11483;55.828;37.488;2022-11-18T15:57:04;-3.50;99.90
22633;DHT22;11483;55.828;37.488;2022-11-18T15:59:30;-3.50;99.90
22633;DHT22;11483;55.828;37.488;2022-11-18T16:01:55;-3.50;99.90
22633;DHT22;11483;55.828;37.488;2022-11-18T16:04:21;-3.50;99.90
22633;DHT22;11483;55.828;37.488;2022-11-18T16:06:48;-3.50;99.90
22633;DHT22;11483;55.828;37.488;2022-11-18T16:09:17;-3.40;99.90
22633;DHT22;11483;55.828;37.488;2022-11-18T16:11:43;-3.50;99.90
22633;DHT22;11483;55.828;37.488;2022-11-18T16:14:28;-3.50;99.90
22633;DHT22;11483;55.828;37.488;2022-11-18T16:16:55;-3.60;99.90
22633;DHT22;11483;55.828;37.488;2022-11-18T16:19:23;-3.60;99.90
22633;DHT22;11483;55.828;37.488;2022-11-18T16:21:51;-3.50;99.90
22633;DHT22;11483;55.828;37.488;2022-11-18T16:24:20;-3.40;99.90
22633;DHT22;11483;55.828;37.488;2022-11-18T16:26:46;-3.40;99.90
22633;DHT22;11483;55.828;37.488;2022-11-18T16:29:13;-3.30;99.90
22633;DHT22;11483;55.828;37.488;2022-11-18T16:31:42;-3.30;99.90
22633;DHT22;11483;55.828;37.488;2022-11-18T16:34:24;-3.30;99.90
22633;DHT22;11483;55.828;37.488;2022-11-18T16:36:52;-3.40;99.90
22633;DHT22;11483;55.828;37.488;2022-11-18T16:39:20;-3.50;99.90
22633;DHT22;11483;55.828;37.488;2022-11-18T16:41:51;-3.50;99.90
22633;DHT22;11483;55.828;37.488;2022-11-18T16:44:17;-3.60;99.90
22633;DHT22;11483;55.828;37.488;2022-11-18T16:46:48;-3.60;99.90
22633;DHT22;11483;55.828;37.488;2022-11-18T16:49:16;-3.70;99.90
22633;DHT22;11483;55.828;37.488;2022-11-18T16:51:44;-3.70;99.90
22633;DHT22;11483;55.828;37.488;2022-11-18T16:54:24;-3.80;99.90
22633;DHT22;11483;55.828;37.488;2022-11-18T16:56:52;-3.70;99.90
22633;DHT22;11483;55.828;37.488;2022-11-18T16:59:27;-3.70;99.90
22633;DHT22;11483;55.828;37.488;2022-11-18T17:01:53;-3.70;99.90
22633;DHT22;11483;55.828;37.488;2022-11-18T17:04:20;-3.80;99.90
22633;DHT22;11483;55.828;37.488;2022-11-18T17:06:48;-3.80;99.90
22633;DHT22;11483;55.828;37.488;2022-11-18T17:09:20;-3.80;99.90
22633;DHT22;11483;55.828;37.488;2022-11-18T17:11:46;-3.70;99.90
22633;DHT22;11483;55.828;37.488;2022-11-18T17:14:13;-3.80;99.90
22633;DHT22;11483;55.828;37.488;2022-11-18T17:16:39;-3.80;99.90
22633;DHT22;11483;55.828;37.488;2022-11-18T17:19:05;-3.80;99.90
22633;DHT22;11483;55.828;37.488;2022-11-18T17:21:32;-3.70;99.90
22633;DHT22;11483;55.828;37.488;2022-11-18T17:23:58;-3.70;99.90
22633;DHT22;11483;55.828;37.488;2022-11-18T17:26:27;-3.60;99.90
22633;DHT22;11483;55.828;37.488;2022-11-18T17:28:56;-3.70;99.90
22633;DHT22;11483;55.828;37.488;2022-11-18T17:31:23;-3.70;99.90
22633;DHT22;11483;55.828;37.488;2022-11-18T17:33:51;-3.80;99.90
22633;DHT22;11483;55.828;37.488;2022-11-18T17:36:20;-3.70;99.90
22633;DHT22;11483;55.828;37.488;2022-11-18T17:38:48;-3.70;99.90
22633;DHT22;11483;55.828;37.488;2022-11-18T17:41:16;-3.70;99.90
22633;DHT22;11483;55.828;37.488;2022-11-18T17:44:02;-3.70;99.90